sensor_id;sensor_type;location;lat;lon;timestamp;pressure;altitude;pressure_sealevel;temperature;humidity
9523;BME280;63165;43.016;25.784;2023-01-25T00:02:25;101750.50;;;3.86;73.40
9523;BME280;63165;43.016;25.784;2023-01-25T00:04:52;101744.47;;;3.85;73.66
9523;BME280;63165;43.016;25.784;2023-01-25T00:07:20;101738.38;;;3.85;73.41
9523;BME280;63165;43.016;25.784;2023-01-25T00:09:47;101745.28;;;3.84;73.37
9523;BME280;63165;43.016;25.784;2023-01-25T00:12:14;101736.69;;;3.85;73.80
9523;BME280;63165;43.016;25.784;2023-01-25T00:14:44;101745.34;;;3.86;73.50
9523;BME280;63165;43.016;25.784;2023-01-25T00:17:11;101735.91;;;3.88;73.79
9523;BME280;63165;43.016;25.784;2023-01-25T00:19:38;101740.16;;;3.86;73.44
9523;BME280;63165;43.016;25.784;2023-01-25T00:22:05;101743.50;;;3.83;73.33
9523;BME280;63165;43.016;25.784;2023-01-25T00:24:32;101739.97;;;3.81;72.96
9523;BME280;63165;43.016;25.784;2023-01-25T00:27:01;101740.81;;;3.80;72.85
9523;BME280;63165;43.016;25.784;2023-01-25T00:29:28;101735.56;;;3.79;73.08
9523;BME280;63165;43.016;25.784;2023-01-25T00:32:07;101744.16;;;3.78;73.15
9523;BME280;63165;43.016;25.784;2023-01-25T00:34:54;101742.47;;;3.78;73.03
9523;BME280;63165;43.016;25.784;2023-01-25T00:37:38;101742.41;;;3.77;73.00
9523;BME280;63165;43.016;25.784;2023-01-25T00:40:10;101747.50;;;3.75;72.98
9523;BME280;63165;43.016;25.784;2023-01-25T00:42:38;101736.22;;;3.73;72.96
9523;BME280;63165;43.016;25.784;2023-01-25T00:45:06;101737.09;;;3.74;72.87
9523;BME280;63165;43.016;25.784;2023-01-25T00:47:35;101736.28;;;3.75;72.93
9523;BME280;63165;43.016;25.784;2023-01-25T00:50:03;101735.50;;;3.77;72.94
9523;BME280;63165;43.016;25.784;2023-01-25T00:52:30;101739.81;;;3.77;73.10
9523;BME280;63165;43.016;25.784;2023-01-25T00:54:57;101733.69;;;3.75;73.30
9523;BME280;63165;43.016;25.784;2023-01-25T00:57:24;101738.03;;;3.76;73.07
9523;BME280;63165;43.016;25.784;2023-01-25T00:59:51;101731.19;;;3.78;73.29
9523;BME280;63165;43.016;25.784;2023-01-25T01:02:18;101725.22;;;3.79;73.56
9523;BME280;63165;43.016;25.784;2023-01-25T01:04:47;101722.69;;;3.80;73.74
9523;BME280;63165;43.016;25.784;2023-01-25T01:07:14;101718.38;;;3.81;73.95
9523;BME280;63165;43.016;25.784;2023-01-25T01:09:42;101726.22;;;3.82;73.87
9523;BME280;63165;43.016;25.784;2023-01-25T01:12:09;101714.97;;;3.82;74.10
9523;BME280;63165;43.016;25.784;2023-01-25T01:14:36;101708.03;;;3.81;74.16
9523;BME280;63165;43.016;25.784;2023-01-25T01:17:04;101705.38;;;3.79;74.22
9523;BME280;63165;43.016;25.784;2023-01-25T01:19:31;101706.28;;;3.80;74.05
9523;BME280;63165;43.016;25.784;2023-01-25T01:22:00;101709.56;;;3.76;74.30
9523;BME280;63165;43.016;25.784;2023-01-25T01:24:27;101708.59;;;3.74;74.09
9523;BME280;63165;43.016;25.784;2023-01-25T01:26:55;101709.53;;;3.74;74.14
9523;BME280;63165;43.016;25.784;2023-01-25T01:29:22;101702.56;;;3.73;73.76
9523;BME280;63165;43.016;25.784;2023-01-25T01:31:49;101695.66;;;3.74;73.50
9523;BME280;63165;43.016;25.784;2023-01-25T01:34:18;101695.59;;;3.72;73.65
9523;BME280;63165;43.016;25.784;2023-01-25T01:36:45;101693.97;;;3.74;73.62
9523;BME280;63165;43.016;25.784;2023-01-25T01:39:14;101702.44;;;3.70;73.87
9523;BME280;63165;43.016;25.784;2023-01-25T01:41:42;101696.44;;;3.71;73.48
9523;BME280;63165;43.016;25.784;2023-01-25T01:44:15;101692.97;;;3.71;73.46
9523;BME280;63165;43.016;25.784;2023-01-25T01:46:45;101688.75;;;3.73;73.87
9523;BME280;63165;43.016;25.784;2023-01-25T01:49:19;101690.44;;;3.72;73.51
9523;BME280;63165;43.016;25.784;2023-01-25T01:51:49;101688.84;;;3.76;73.49
9523;BME280;63165;43.016;25.784;2023-01-25T01:54:22;101694.00;;;3.76;73.27
9523;BME280;63165;43.016;25.784;2023-01-25T01:56:54;101684.56;;;3.76;72.68
9523;BME280;63165;43.016;25.784;2023-01-25T01:59:27;101681.06;;;3.76;72.70
9523;BME280;63165;43.016;25.784;2023-01-25T02:01:58;101680.19;;;3.75;72.70
9523;BME280;63165;43.016;25.784;2023-01-25T02:04:26;101672.38;;;3.74;72.51
9523;BME280;63165;43.016;25.784;2023-01-25T02:06:57;101672.38;;;3.74;72.38
9523;BME280;63165;43.016;25.784;2023-01-25T02:09:30;101665.25;;;3.68;72.51
9523;BME280;63165;43.016;25.784;2023-01-25T02:12:00;101669.41;;;3.63;72.42
9523;BME280;63165;43.016;25.784;2023-01-25T02:14:28;101667.56;;;3.60;72.41
9523;BME280;63165;43.016;25.784;2023-01-25T02:16:56;101667.44;;;3.57;72.60
9523;BME280;63165;43.016;25.784;2023-01-25T02:19:31;101660.44;;;3.55;72.76
9523;BME280;63165;43.016;25.784;2023-01-25T02:22:07;101663.03;;;3.55;72.75
9523;BME280;63165;43.016;25.784;2023-01-25T02:24:39;101673.38;;;3.55;72.88
9523;BME280;63165;43.016;25.784;2023-01-25T02:27:10;101667.41;;;3.56;72.98
9523;BME280;63165;43.016;25.784;2023-01-25T02:29:38;101675.16;;;3.56;72.93
9523;BME280;63165;43.016;25.784;2023-01-25T02:32:06;101674.38;;;3.58;72.76
9523;BME280;63165;43.016;25.784;2023-01-25T02:34:33;101675.31;;;3.60;72.86
9523;BME280;63165;43.016;25.784;2023-01-25T02:37:01;101666.81;;;3.63;73.07
9523;BME280;63165;43.016;25.784;2023-01-25T02:39:29;101660.84;;;3.65;72.97
9523;BME280;63165;43.016;25.784;2023-01-25T02:41:56;101668.56;;;3.64;72.80
9523;BME280;63165;43.016;25.784;2023-01-25T02:44:26;101664.22;;;3.63;73.14
9523;BME280;63165;43.016;25.784;2023-01-25T02:46:55;101664.16;;;3.61;73.19
9523;BME280;63165;43.016;25.784;2023-01-25T02:49:22;101660.72;;;3.62;73.03
9523;BME280;63165;43.016;25.784;2023-01-25T02:51:52;101661.50;;;3.60;72.92
9523;BME280;63165;43.016;25.784;2023-01-25T02:54:23;101671.00;;;3.59;72.88
9523;BME280;63165;43.016;25.784;2023-01-25T02:56:52;101673.56;;;3.59;73.05
9523;BME280;63165;43.016;25.784;2023-01-25T02:59:20;101665.81;;;3.59;72.95
9523;BME280;63165;43.016;25.784;2023-01-25T03:01:49;101672.66;;;3.59;73.51
9523;BME280;63165;43.016;25.784;2023-01-25T03:04:16;101672.72;;;3.60;73.68
9523;BME280;63165;43.016;25.784;2023-01-25T03:06:43;101670.03;;;3.57;73.53
9523;BME280;63165;43.016;25.784;2023-01-25T03:09:11;101668.22;;;3.55;73.25
9523;BME280;63165;43.016;25.784;2023-01-25T03:11:38;101674.16;;;3.52;73.31
9523;BME280;63165;43.016;25.784;2023-01-25T03:14:05;101674.03;;;3.49;73.52
9523;BME280;63165;43.016;25.784;2023-01-25T03:16:33;101670.72;;;3.53;73.65
9523;BME280;63165;43.016;25.784;2023-01-25T03:19:01;101667.22;;;3.51;73.94
9523;BME280;63165;43.016;25.784;2023-01-25T03:21:29;101675.03;;;3.53;73.94
9523;BME280;63165;43.016;25.784;2023-01-25T03:23:58;101666.47;;;3.54;74.22
9523;BME280;63165;43.016;25.784;2023-01-25T03:26:26;101673.44;;;3.56;74.17
9523;BME280;63165;43.016;25.784;2023-01-25T03:28:54;101663.16;;;3.58;74.30
9523;BME280;63165;43.016;25.784;2023-01-25T03:31:21;101671.88;;;3.60;74.42
9523;BME280;63165;43.016;25.784;2023-01-25T03:33:49;101677.97;;;3.62;74.41
9523;BME280;63165;43.016;25.784;2023-01-25T03:36:17;101674.50;;;3.61;74.19
9523;BME280;63165;43.016;25.784;2023-01-25T03:38:45;101669.34;;;3.61;74.01
9523;BME280;63165;43.016;25.784;2023-01-25T03:41:12;101671.88;;;3.60;73.92
9523;BME280;63165;43.016;25.784;2023-01-25T03:43:39;101681.34;;;3.59;74.01
9523;BME280;63165;43.016;25.784;2023-01-25T03:46:07;101678.63;;;3.56;74.00
9523;BME280;63165;43.016;25.784;2023-01-25T03:48:34;101677.69;;;3.54;74.03
9523;BME280;63165;43.016;25.784;2023-01-25T03:51:01;101685.91;;;3.44;73.30
9523;BME280;63165;43.016;25.784;2023-01-25T03:53:30;101697.91;;;3.42;72.98
9523;BME280;63165;43.016;25.784;2023-01-25T03:55:59;101683.16;;;3.39;73.02
9523;BME280;63165;43.016;25.784;2023-01-25T03:58:27;101685.69;;;3.38;73.16
9523;BME280;63165;43.016;25.784;2023-01-25T04:00:57;101691.56;;;3.34;73.10
9523;BME280;63165;43.016;25.784;2023-01-25T04:03:25;101687.03;;;3.28;72.75
9523;BME280;63165;43.016;25.784;2023-01-25T04:05:52;101686.81;;;3.23;72.66
9523;BME280;63165;43.016;25.784;2023-01-25T04:08:20;101689.41;;;3.23;72.66
9523;BME280;63165;43.016;25.784;2023-01-25T04:11:01;101684.25;;;3.23;73.13
9523;BME280;63165;43.016;25.784;2023-01-25T04:13:28;101674.91;;;3.27;72.90
9523;BME280;63165;43.016;25.784;2023-01-25T04:15:56;101676.63;;;3.26;73.32
9523;BME280;63165;43.016;25.784;2023-01-25T04:18:24;101680.97;;;3.27;73.40
9523;BME280;63165;43.016;25.784;2023-01-25T04:20:52;101678.56;;;3.32;73.20
9523;BME280;63165;43.016;25.784;2023-01-25T04:23:20;101676.75;;;3.29;73.07
9523;BME280;63165;43.016;25.784;2023-01-25T04:25:53;101680.13;;;3.28;73.07
9523;BME280;63165;43.016;25.784;2023-01-25T04:28:21;101681.00;;;3.29;73.64
9523;BME280;63165;43.016;25.784;2023-01-25T04:30:48;101685.50;;;3.33;73.61
9523;BME280;63165;43.016;25.784;2023-01-25T04:33:16;101682.97;;;3.35;73.66
9523;BME280;63165;43.016;25.784;2023-01-25T04:35:44;101683.09;;;3.38;73.52
9523;BME280;63165;43.016;25.784;2023-01-25T04:38:11;101685.03;;;3.43;73.66
9523;BME280;63165;43.016;25.784;2023-01-25T04:40:39;101685.16;;;3.46;73.41
9523;BME280;63165;43.016;25.784;2023-01-25T04:43:08;101685.97;;;3.45;73.72
9523;BME280;63165;43.016;25.784;2023-01-25T04:45:37;101695.44;;;3.45;73.91
9523;BME280;63165;43.016;25.784;2023-01-25T04:48:05;101689.50;;;3.47;74.07
9523;BME280;63165;43.016;25.784;2023-01-25T04:50:34;101694.75;;;3.49;74.27
9523;BME280;63165;43.016;25.784;2023-01-25T04:53:02;101691.34;;;3.50;74.32
9523;BME280;63165;43.016;25.784;2023-01-25T04:55:29;101693.16;;;3.53;74.48
9523;BME280;63165;43.016;25.784;2023-01-25T04:57:57;101691.44;;;3.53;74.49
9523;BME280;63165;43.016;25.784;2023-01-25T05:00:26;101686.25;;;3.53;74.62
9523;BME280;63165;43.016;25.784;2023-01-25T05:02:54;101689.75;;;3.54;74.60
9523;BME280;63165;43.016;25.784;2023-01-25T05:05:21;101683.81;;;3.56;74.75
9523;BME280;63165;43.016;25.784;2023-01-25T05:07:49;101684.56;;;3.54;74.31
9523;BME280;63165;43.016;25.784;2023-01-25T05:10:16;101681.88;;;3.50;74.42
9523;BME280;63165;43.016;25.784;2023-01-25T05:12:44;101687.91;;;3.51;74.65
9523;BME280;63165;43.016;25.784;2023-01-25T05:15:11;101685.22;;;3.48;74.52
9523;BME280;63165;43.016;25.784;2023-01-25T05:17:40;101693.81;;;3.47;74.49
9523;BME280;63165;43.016;25.784;2023-01-25T05:20:08;101685.22;;;3.48;74.60
9523;BME280;63165;43.016;25.784;2023-01-25T05:22:36;101688.69;;;3.48;74.52
9523;BME280;63165;43.016;25.784;2023-01-25T05:25:04;101689.50;;;3.47;74.24
9523;BME280;63165;43.016;25.784;2023-01-25T05:27:51;101687.03;;;3.50;74.29
9523;BME280;63165;43.016;25.784;2023-01-25T05:30:17;101687.03;;;3.50;74.44
9523;BME280;63165;43.016;25.784;2023-01-25T05:32:47;101691.34;;;3.50;74.48
9523;BME280;63165;43.016;25.784;2023-01-25T05:35:15;101698.25;;;3.51;74.66
9523;BME280;63165;43.016;25.784;2023-01-25T05:37:42;101687.84;;;3.49;74.47
9523;BME280;63165;43.016;25.784;2023-01-25T05:40:10;101697.25;;;3.47;74.67
9523;BME280;63165;43.016;25.784;2023-01-25T05:42:38;101696.38;;;3.47;74.85
9523;BME280;63165;43.016;25.784;2023-01-25T05:45:07;101705.09;;;3.49;75.36
9523;BME280;63165;43.016;25.784;2023-01-25T05:47:34;101703.38;;;3.49;75.27
9523;BME280;63165;43.016;25.784;2023-01-25T05:50:03;101703.50;;;3.53;74.96
9523;BME280;63165;43.016;25.784;2023-01-25T05:52:31;101707.81;;;3.52;74.94
9523;BME280;63165;43.016;25.784;2023-01-25T05:54:58;101700.75;;;3.48;74.73
9523;BME280;63165;43.016;25.784;2023-01-25T05:57:25;101703.06;;;3.42;74.72
9523;BME280;63165;43.016;25.784;2023-01-25T05:59:53;101706.44;;;3.39;74.52
9523;BME280;63165;43.016;25.784;2023-01-25T06:02:21;101703.72;;;3.36;74.66
9523;BME280;63165;43.016;25.784;2023-01-25T06:04:48;101701.97;;;3.35;74.91
9523;BME280;63165;43.016;25.784;2023-01-25T06:07:16;101698.44;;;3.33;74.61
9523;BME280;63165;43.016;25.784;2023-01-25T06:09:44;101699.09;;;3.27;74.16
9523;BME280;63165;43.016;25.784;2023-01-25T06:12:11;101699.84;;;3.25;73.91
9523;BME280;63165;43.016;25.784;2023-01-25T06:14:38;101702.31;;;3.22;74.18
9523;BME280;63165;43.016;25.784;2023-01-25T06:17:05;101704.94;;;3.23;74.25
9523;BME280;63165;43.016;25.784;2023-01-25T06:19:32;101707.53;;;3.23;73.52
9523;BME280;63165;43.016;25.784;2023-01-25T06:22:00;101703.13;;;3.21;73.98
9523;BME280;63165;43.016;25.784;2023-01-25T06:24:29;101704.00;;;3.21;73.81
9523;BME280;63165;43.016;25.784;2023-01-25T06:26:56;101704.91;;;3.22;74.14
9523;BME280;63165;43.016;25.784;2023-01-25T06:29:24;101711.06;;;3.25;74.04
9523;BME280;63165;43.016;25.784;2023-01-25T06:31:51;101715.47;;;3.28;74.18
9523;BME280;63165;43.016;25.784;2023-01-25T06:34:20;101706.06;;;3.30;74.67
9523;BME280;63165;43.016;25.784;2023-01-25T06:36:47;101719.19;;;3.35;74.49
9523;BME280;63165;43.016;25.784;2023-01-25T06:39:14;101713.91;;;3.32;74.22
9523;BME280;63165;43.016;25.784;2023-01-25T06:41:43;101711.31;;;3.32;74.20
9523;BME280;63165;43.016;25.784;2023-01-25T06:44:10;101712.25;;;3.34;74.40
9523;BME280;63165;43.016;25.784;2023-01-25T06:46:38;101714.13;;;3.38;74.70
9523;BME280;63165;43.016;25.784;2023-01-25T06:49:05;101708.16;;;3.39;74.55
9523;BME280;63165;43.016;25.784;2023-01-25T06:51:32;101716.00;;;3.42;74.33
9523;BME280;63165;43.016;25.784;2023-01-25T06:54:01;101716.16;;;3.45;74.64
9523;BME280;63165;43.016;25.784;2023-01-25T06:56:29;101717.97;;;3.47;74.76
9523;BME280;63165;43.016;25.784;2023-01-25T06:58:59;101714.63;;;3.50;74.72
9523;BME280;63165;43.016;25.784;2023-01-25T07:01:26;101720.75;;;3.52;74.48
9523;BME280;63165;43.016;25.784;2023-01-25T07:03:56;101710.13;;;3.46;74.10
9523;BME280;63165;43.016;25.784;2023-01-25T07:06:25;101721.31;;;3.45;73.99
9523;BME280;63165;43.016;25.784;2023-01-25T07:08:52;101722.13;;;3.44;74.06
9523;BME280;63165;43.016;25.784;2023-01-25T07:11:20;101722.09;;;3.42;74.14
9523;BME280;63165;43.016;25.784;2023-01-25T07:13:47;101722.03;;;3.41;74.10
9523;BME280;63165;43.016;25.784;2023-01-25T07:16:17;101728.09;;;3.41;74.19
9523;BME280;63165;43.016;25.784;2023-01-25T07:18:44;101724.41;;;3.36;73.85
9523;BME280;63165;43.016;25.784;2023-01-25T07:21:13;101717.44;;;3.34;74.17
9523;BME280;63165;43.016;25.784;2023-01-25T07:23:40;101720.91;;;3.34;74.28
9523;BME280;63165;43.016;25.784;2023-01-25T07:26:13;101728.72;;;3.36;74.42
9523;BME280;63165;43.016;25.784;2023-01-25T07:28:41;101726.06;;;3.34;74.17
9523;BME280;63165;43.016;25.784;2023-01-25T07:31:09;101726.72;;;3.28;74.38
9523;BME280;63165;43.016;25.784;2023-01-25T07:33:37;101726.63;;;3.27;74.26
9523;BME280;63165;43.016;25.784;2023-01-25T07:36:06;101733.66;;;3.29;74.50
9523;BME280;63165;43.016;25.784;2023-01-25T07:38:35;101729.50;;;3.33;74.61
9523;BME280;63165;43.016;25.784;2023-01-25T07:41:03;101726.13;;;3.36;74.54
9523;BME280;63165;43.016;25.784;2023-01-25T07:43:30;101731.44;;;3.39;74.67
9523;BME280;63165;43.016;25.784;2023-01-25T07:46:02;101733.25;;;3.41;75.21
9523;BME280;63165;43.016;25.784;2023-01-25T07:48:29;101735.06;;;3.44;75.29
9523;BME280;63165;43.016;25.784;2023-01-25T07:51:00;101731.75;;;3.46;74.96
9523;BME280;63165;43.016;25.784;2023-01-25T07:53:38;101727.44;;;3.47;74.75
9523;BME280;63165;43.016;25.784;2023-01-25T07:56:06;101725.72;;;3.47;74.83
9523;BME280;63165;43.016;25.784;2023-01-25T07:58:34;101727.56;;;3.50;75.01
9523;BME280;63165;43.016;25.784;2023-01-25T08:01:08;101727.72;;;3.55;74.89
9523;BME280;63165;43.016;25.784;2023-01-25T08:03:36;101730.31;;;3.55;74.25
9523;BME280;63165;43.016;25.784;2023-01-25T08:06:06;101721.56;;;3.51;73.95
9523;BME280;63165;43.016;25.784;2023-01-25T08:08:38;101729.25;;;3.49;74.10
9523;BME280;63165;43.016;25.784;2023-01-25T08:11:08;101723.13;;;3.47;74.40
9523;BME280;63165;43.016;25.784;2023-01-25T08:13:36;101718.97;;;3.51;74.70
9523;BME280;63165;43.016;25.784;2023-01-25T08:16:04;101716.66;;;3.59;74.43
9523;BME280;63165;43.016;25.784;2023-01-25T08:18:31;101723.78;;;3.64;74.58
9523;BME280;63165;43.016;25.784;2023-01-25T08:20:59;101716.00;;;3.63;74.47
9523;BME280;63165;43.016;25.784;2023-01-25T08:23:29;101711.69;;;3.63;74.43
9523;BME280;63165;43.016;25.784;2023-01-25T08:26:00;101723.03;;;3.67;74.67
9523;BME280;63165;43.016;25.784;2023-01-25T08:28:28;101720.63;;;3.72;74.66
9523;BME280;63165;43.016;25.784;2023-01-25T08:31:04;101724.44;;;3.81;74.10
9523;BME280;63165;43.016;25.784;2023-01-25T08:33:32;101719.44;;;3.86;74.04
9523;BME280;63165;43.016;25.784;2023-01-25T08:36:00;101710.16;;;3.91;73.83
9523;BME280;63165;43.016;25.784;2023-01-25T08:38:29;101710.25;;;3.94;73.36
9523;BME280;63165;43.016;25.784;2023-01-25T08:41:04;101710.19;;;3.93;73.58
9523;BME280;63165;43.016;25.784;2023-01-25T08:43:31;101716.19;;;3.92;72.95
9523;BME280;63165;43.016;25.784;2023-01-25T08:45:59;101711.75;;;3.87;72.98
9523;BME280;63165;43.016;25.784;2023-01-25T08:48:26;101715.84;;;3.82;72.78
9523;BME280;63165;43.016;25.784;2023-01-25T08:50:54;101711.69;;;3.86;72.52
9523;BME280;63165;43.016;25.784;2023-01-25T08:53:21;101710.97;;;3.90;72.89
9523;BME280;63165;43.016;25.784;2023-01-25T08:55:50;101712.69;;;3.89;72.40
9523;BME280;63165;43.016;25.784;2023-01-25T08:58:18;101706.63;;;3.89;72.58
9523;BME280;63165;43.016;25.784;2023-01-25T09:00:47;101707.38;;;3.86;72.35
9523;BME280;63165;43.016;25.784;2023-01-25T09:03:15;101707.44;;;3.88;72.60
9523;BME280;63165;43.016;25.784;2023-01-25T09:05:43;101707.59;;;3.93;72.58
9523;BME280;63165;43.016;25.784;2023-01-25T09:08:10;101706.00;;;3.96;72.83
9523;BME280;63165;43.016;25.784;2023-01-25T09:10:38;101707.06;;;4.01;72.78
9523;BME280;63165;43.016;25.784;2023-01-25T09:13:06;101694.09;;;4.01;72.67
9523;BME280;63165;43.016;25.784;2023-01-25T09:15:34;101697.03;;;4.11;72.42
9523;BME280;63165;43.016;25.784;2023-01-25T09:18:01;101691.19;;;4.16;71.89
9523;BME280;63165;43.016;25.784;2023-01-25T09:20:29;101696.56;;;4.21;72.16
9523;BME280;63165;43.016;25.784;2023-01-25T09:22:56;101685.28;;;4.20;71.83
9523;BME280;63165;43.016;25.784;2023-01-25T09:25:24;101682.94;;;4.26;71.65
9523;BME280;63165;43.016;25.784;2023-01-25T09:27:51;101683.88;;;4.28;71.35
9523;BME280;63165;43.016;25.784;2023-01-25T09:30:21;101677.69;;;4.25;71.68
9523;BME280;63165;43.016;25.784;2023-01-25T09:32:49;101675.09;;;4.25;71.03
9523;BME280;63165;43.016;25.784;2023-01-25T09:35:16;101663.94;;;4.27;70.98
9523;BME280;63165;43.016;25.784;2023-01-25T09:37:44;101657.97;;;4.28;70.96
9523;BME280;63165;43.016;25.784;2023-01-25T09:40:18;101653.75;;;4.32;70.59
9523;BME280;63165;43.016;25.784;2023-01-25T09:42:58;101650.44;;;4.36;70.93
9523;BME280;63165;43.016;25.784;2023-01-25T09:45:33;101655.78;;;4.41;70.77
9523;BME280;63165;43.016;25.784;2023-01-25T09:48:16;101645.34;;;4.39;70.00
9523;BME280;63165;43.016;25.784;2023-01-25T09:51:07;101638.88;;;4.26;69.52
9523;BME280;63165;43.016;25.784;2023-01-25T09:53:47;101633.84;;;4.31;70.06
9523;BME280;63165;43.016;25.784;2023-01-25T09:56:16;101632.38;;;4.38;70.54
9523;BME280;63165;43.016;25.784;2023-01-25T09:58:49;101633.28;;;4.40;70.18
9523;BME280;63165;43.016;25.784;2023-01-25T10:01:46;101626.50;;;4.43;69.73
9523;BME280;63165;43.016;25.784;2023-01-25T10:04:17;101619.66;;;4.45;69.77
9523;BME280;63165;43.016;25.784;2023-01-25T10:06:48;101618.41;;;4.34;69.61
9523;BME280;63165;43.016;25.784;2023-01-25T10:09:24;101615.97;;;4.39;69.52
9523;BME280;63165;43.016;25.784;2023-01-25T10:11:56;101605.78;;;4.45;69.73
9523;BME280;63165;43.016;25.784;2023-01-25T10:14:25;101600.78;;;4.50;69.69
9523;BME280;63165;43.016;25.784;2023-01-25T10:17:13;101596.66;;;4.55;69.78
9523;BME280;63165;43.016;25.784;2023-01-25T10:19:53;101593.25;;;4.57;69.50
9523;BME280;63165;43.016;25.784;2023-01-25T10:22:28;101594.25;;;4.61;69.03
9523;BME280;63165;43.016;25.784;2023-01-25T10:28:00;101584.22;;;4.72;68.92
9523;BME280;63165;43.016;25.784;2023-01-25T10:30:34;101580.78;;;4.73;68.94
9523;BME280;63165;43.016;25.784;2023-01-25T10:33:10;101583.72;;;4.83;69.19
9523;BME280;63165;43.016;25.784;2023-01-25T10:35:43;101572.66;;;4.89;69.12
9523;BME280;63165;43.016;25.784;2023-01-25T10:38:15;101567.66;;;4.95;68.54
9523;BME280;63165;43.016;25.784;2023-01-25T10:40:45;101558.19;;;4.96;67.39
9523;BME280;63165;43.016;25.784;2023-01-25T10:43:17;101549.66;;;5.00;66.93
9523;BME280;63165;43.016;25.784;2023-01-25T10:45:44;101551.66;;;5.10;66.86
9523;BME280;63165;43.016;25.784;2023-01-25T10:48:17;101549.81;;;5.06;65.75
9523;BME280;63165;43.016;25.784;2023-01-25T10:50:49;101544.47;;;5.00;65.35
9523;BME280;63165;43.016;25.784;2023-01-25T10:53:35;101546.94;;;4.97;64.75
9523;BME280;63165;43.016;25.784;2023-01-25T10:56:21;101537.44;;;4.96;64.37
9523;BME280;63165;43.016;25.784;2023-01-25T10:58:51;101527.81;;;4.93;63.91
9523;BME280;63165;43.016;25.784;2023-01-25T11:01:26;101526.91;;;4.91;63.53
9523;BME280;63165;43.016;25.784;2023-01-25T11:03:56;101522.59;;;4.92;63.56
9523;BME280;63165;43.016;25.784;2023-01-25T11:06:34;101512.94;;;4.88;63.38
9523;BME280;63165;43.016;25.784;2023-01-25T11:09:34;101517.13;;;4.82;62.63
9523;BME280;63165;43.016;25.784;2023-01-25T11:12:04;101509.22;;;4.78;63.15
9523;BME280;63165;43.016;25.784;2023-01-25T11:14:33;101497.00;;;4.74;63.00
9523;BME280;63165;43.016;25.784;2023-01-25T11:17:03;101505.53;;;4.71;63.30
9523;BME280;63165;43.016;25.784;2023-01-25T11:19:34;101493.53;;;4.73;63.17
9523;BME280;63165;43.016;25.784;2023-01-25T11:22:03;101494.63;;;4.81;63.40
9523;BME280;63165;43.016;25.784;2023-01-25T11:24:32;101492.91;;;4.82;63.83
9523;BME280;63165;43.016;25.784;2023-01-25T11:27:20;101487.66;;;4.80;63.95
9523;BME280;63165;43.016;25.784;2023-01-25T11:30:06;101486.06;;;4.84;64.09
9523;BME280;63165;43.016;25.784;2023-01-25T11:32:38;101484.34;;;4.84;64.13
9523;BME280;63165;43.016;25.784;2023-01-25T11:35:13;101480.84;;;4.84;63.97
9523;BME280;63165;43.016;25.784;2023-01-25T11:38:01;101476.47;;;4.81;63.41
9523;BME280;63165;43.016;25.784;2023-01-25T11:40:35;101474.69;;;4.80;63.59
9523;BME280;63165;43.016;25.784;2023-01-25T11:43:15;101471.28;;;4.81;63.86
9523;BME280;63165;43.016;25.784;2023-01-25T11:46:08;101469.50;;;4.80;63.75
9523;BME280;63165;43.016;25.784;2023-01-25T11:49:00;101469.50;;;4.80;63.96
9523;BME280;63165;43.016;25.784;2023-01-25T11:51:35;101483.34;;;4.79;63.92
9523;BME280;63165;43.016;25.784;2023-01-25T11:54:29;101468.59;;;4.78;63.87
9523;BME280;63165;43.016;25.784;2023-01-25T11:57:07;101478.16;;;4.79;63.94
9523;BME280;63165;43.016;25.784;2023-01-25T11:59:57;101474.69;;;4.79;63.77
9523;BME280;63165;43.016;25.784;2023-01-25T12:02:47;101463.22;;;4.72;63.59
9523;BME280;63165;43.016;25.784;2023-01-25T12:05:48;101470.72;;;4.63;63.48
9523;BME280;63165;43.016;25.784;2023-01-25T12:08:37;101462.66;;;4.54;63.46
9523;BME280;63165;43.016;25.784;2023-01-25T12:11:12;101455.59;;;4.48;63.66
9523;BME280;63165;43.016;25.784;2023-01-25T12:13:48;101457.25;;;4.46;63.85
9523;BME280;63165;43.016;25.784;2023-01-25T12:16:38;101465.81;;;4.43;64.05
9523;BME280;63165;43.016;25.784;2023-01-25T12:25:17;101460.59;;;4.42;64.29
9523;BME280;63165;43.016;25.784;2023-01-25T12:28:00;101469.25;;;4.42;64.40
9523;BME280;63165;43.016;25.784;2023-01-25T12:30:40;101457.09;;;4.41;64.63
9523;BME280;63165;43.016;25.784;2023-01-25T12:33:12;101462.19;;;4.38;64.61
9523;BME280;63165;43.016;25.784;2023-01-25T12:35:45;101461.34;;;4.39;64.56
9523;BME280;63165;43.016;25.784;2023-01-25T12:38:20;101457.91;;;4.39;65.00
9523;BME280;63165;43.016;25.784;2023-01-25T12:40:52;101457.06;;;4.40;64.98
9523;BME280;63165;43.016;25.784;2023-01-25T12:43:26;101455.34;;;4.40;65.18
9523;BME280;63165;43.016;25.784;2023-01-25T12:45:56;101456.16;;;4.39;64.67
9523;BME280;63165;43.016;25.784;2023-01-25T12:48:29;101451.78;;;4.37;64.37
9523;BME280;63165;43.016;25.784;2023-01-25T12:50:59;101450.91;;;4.36;64.55
9523;BME280;63165;43.016;25.784;2023-01-25T12:53:30;101456.00;;;4.33;64.55
9523;BME280;63165;43.016;25.784;2023-01-25T12:56:03;101443.72;;;4.27;64.24
9523;BME280;63165;43.016;25.784;2023-01-25T12:58:39;101447.00;;;4.22;64.30
9523;BME280;63165;43.016;25.784;2023-01-25T13:01:15;101446.81;;;4.16;64.55
9523;BME280;63165;43.016;25.784;2023-01-25T13:04:02;101439.13;;;4.19;64.89
9523;BME280;63165;43.016;25.784;2023-01-25T13:06:37;101435.59;;;4.17;65.07
9523;BME280;63165;43.016;25.784;2023-01-25T13:09:10;101438.94;;;4.13;65.34
9523;BME280;63165;43.016;25.784;2023-01-25T13:11:45;101430.28;;;4.12;65.42
9523;BME280;63165;43.016;25.784;2023-01-25T13:14:27;101436.28;;;4.11;65.64
9523;BME280;63165;43.016;25.784;2023-01-25T13:16:54;101436.22;;;4.09;66.14
9523;BME280;63165;43.016;25.784;2023-01-25T13:19:39;101429.13;;;4.02;65.67
9523;BME280;63165;43.016;25.784;2023-01-25T13:22:11;101425.56;;;3.99;65.56
9523;BME280;63165;43.016;25.784;2023-01-25T13:25:06;101428.91;;;3.96;65.77
9523;BME280;63165;43.016;25.784;2023-01-25T13:27:36;101431.34;;;3.92;66.21
9523;BME280;63165;43.016;25.784;2023-01-25T13:30:29;101423.59;;;3.92;66.04